Terminal Aerodrome Forecast
Issued by NWS Quad Cities IA IL

Home | Current Version | Previous Version | Text Only | Print | Product List | Glossary On
Versions: 1 2 3 4 5 6 7 8 9 10 11 12 13 14 15 16 17 18 19
219
FTUS43 KDVN 150921 AAA
TAFMLI
TAF AMD
KMLI 150921Z 1509/1606 17009KT 3SM -SN BR OVC012
      TEMPO 1509/1510 1SM -SN BR
     FM151030 30011G18KT 6SM -SHSN BR OVC015
     FM151300 31016G26KT P6SM OVC030
     FM160000 31014G23KT P6SM BKN025=

USA.gov is the U.S. government's official web portal to all federal, state and local government web resources and services.